sensor_id;sensor_type;location;lat;lon;timestamp;pressure;altitude;pressure_sealevel;temperature;humidity
27729;BME280;15126;42.186;24.340;2022-09-02T00:00:35;98906.78;;;23.41;95.94
27729;BME280;15126;42.186;24.340;2022-09-02T00:03:02;98911.19;;;23.42;95.93
27729;BME280;15126;42.186;24.340;2022-09-02T00:05:29;98905.47;;;23.42;96.03
27729;BME280;15126;42.186;24.340;2022-09-02T00:07:57;98915.56;;;23.43;96.09
27729;BME280;15126;42.186;24.340;2022-09-02T00:10:24;98911.19;;;23.42;95.07
27729;BME280;15126;42.186;24.340;2022-09-02T00:12:51;98903.16;;;23.41;95.26
27729;BME280;15126;42.186;24.340;2022-09-02T00:15:18;98899.78;;;23.42;95.82
27729;BME280;15126;42.186;24.340;2022-09-02T00:17:45;98903.16;;;23.41;96.40
27729;BME280;15126;42.186;24.340;2022-09-02T00:20:12;98906.00;;;23.41;96.10
27729;BME280;15126;42.186;24.340;2022-09-02T00:22:38;98901.09;;;23.36;96.08
27729;BME280;15126;42.186;24.340;2022-09-02T00:25:07;98899.34;;;23.27;95.79
27729;BME280;15126;42.186;24.340;2022-09-02T00:27:34;98897.03;;;23.26;95.28
27729;BME280;15126;42.186;24.340;2022-09-02T00:30:01;98902.75;;;23.20;95.48
27729;BME280;15126;42.186;24.340;2022-09-02T00:32:28;98905.59;;;23.20;94.09
27729;BME280;15126;42.186;24.340;2022-09-02T00:34:55;98897.56;;;23.19;94.18
27729;BME280;15126;42.186;24.340;2022-09-02T00:37:22;98905.38;;;23.18;94.53
27729;BME280;15126;42.186;24.340;2022-09-02T00:39:50;98911.53;;;23.22;94.65
27729;BME280;15126;42.186;24.340;2022-09-02T00:42:19;98905.88;;;23.17;94.46
27729;BME280;15126;42.186;24.340;2022-09-02T00:44:47;98903.03;;;23.17;94.70
27729;BME280;15126;42.186;24.340;2022-09-02T00:47:14;98905.09;;;23.16;93.51
27729;BME280;15126;42.186;24.340;2022-09-02T00:49:44;98906.41;;;23.15;94.03
27729;BME280;15126;42.186;24.340;2022-09-02T00:52:15;98882.97;;;22.98;93.33
27729;BME280;15126;42.186;24.340;2022-09-02T00:54:46;98901.81;;;23.06;93.09
27729;BME280;15126;42.186;24.340;2022-09-02T00:57:16;98910.63;;;23.03;93.99
27729;BME280;15126;42.186;24.340;2022-09-02T00:59:50;98912.97;;;22.99;92.86
27729;BME280;15126;42.186;24.340;2022-09-02T01:02:20;98914.09;;;22.85;93.27
27729;BME280;15126;42.186;24.340;2022-09-02T01:04:48;98910.22;;;22.82;93.98
27729;BME280;15126;42.186;24.340;2022-09-02T01:07:15;98917.97;;;22.82;94.21
27729;BME280;15126;42.186;24.340;2022-09-02T01:09:42;98912.53;;;22.78;94.27
27729;BME280;15126;42.186;24.340;2022-09-02T01:12:09;98912.31;;;22.76;94.61
27729;BME280;15126;42.186;24.340;2022-09-02T01:14:38;98913.59;;;22.75;94.82
27729;BME280;15126;42.186;24.340;2022-09-02T01:17:06;98900.72;;;22.69;95.90
27729;BME280;15126;42.186;24.340;2022-09-02T01:19:36;98908.97;;;22.67;95.23
27729;BME280;15126;42.186;24.340;2022-09-02T01:22:14;98915.19;;;22.65;95.63
27729;BME280;15126;42.186;24.340;2022-09-02T01:24:42;98905.09;;;22.64;96.07
27729;BME280;15126;42.186;24.340;2022-09-02T01:27:08;98908.72;;;22.65;95.77
27729;BME280;15126;42.186;24.340;2022-09-02T01:29:39;98910.53;;;22.57;95.77
27729;BME280;15126;42.186;24.340;2022-09-02T01:32:06;98913.13;;;22.60;95.30
27729;BME280;15126;42.186;24.340;2022-09-02T01:34:33;98909.75;;;22.56;94.52
27729;BME280;15126;42.186;24.340;2022-09-02T01:37:00;98908.75;;;22.53;93.94
27729;BME280;15126;42.186;24.340;2022-09-02T01:39:28;98906.19;;;22.50;94.44
27729;BME280;15126;42.186;24.340;2022-09-02T01:41:55;98902.31;;;22.47;94.39
27729;BME280;15126;42.186;24.340;2022-09-02T01:44:22;98909.03;;;22.50;94.56
27729;BME280;15126;42.186;24.340;2022-09-02T01:46:52;98914.22;;;22.46;93.20
27729;BME280;15126;42.186;24.340;2022-09-02T01:49:19;98903.38;;;22.44;93.23
27729;BME280;15126;42.186;24.340;2022-09-02T01:51:46;98906.22;;;22.44;93.54
27729;BME280;15126;42.186;24.340;2022-09-02T01:54:13;98909.31;;;22.41;93.54
27729;BME280;15126;42.186;24.340;2022-09-02T01:56:41;98916.56;;;22.42;92.58
27729;BME280;15126;42.186;24.340;2022-09-02T01:59:08;98915.25;;;22.37;92.43
27729;BME280;15126;42.186;24.340;2022-09-02T02:01:39;98912.16;;;22.35;92.43
27729;BME280;15126;42.186;24.340;2022-09-02T02:04:05;98909.88;;;22.34;92.26
27729;BME280;15126;42.186;24.340;2022-09-02T02:06:33;98910.38;;;22.32;92.39
27729;BME280;15126;42.186;24.340;2022-09-02T02:09:00;98912.16;;;22.35;92.49
27729;BME280;15126;42.186;24.340;2022-09-02T02:11:27;98919.41;;;22.36;93.39
27729;BME280;15126;42.186;24.340;2022-09-02T02:13:55;98918.91;;;22.32;93.48
27729;BME280;15126;42.186;24.340;2022-09-02T02:16:22;98912.44;;;22.32;93.62
27729;BME280;15126;42.186;24.340;2022-09-02T02:18:49;98915.53;;;22.34;93.15
27729;BME280;15126;42.186;24.340;2022-09-02T02:21:16;98907.53;;;22.32;93.63
27729;BME280;15126;42.186;24.340;2022-09-02T02:23:42;98914.50;;;22.31;93.42
27729;BME280;15126;42.186;24.340;2022-09-02T02:26:09;98909.88;;;22.28;93.90
27729;BME280;15126;42.186;24.340;2022-09-02T02:28:36;98899.28;;;22.23;93.04
27729;BME280;15126;42.186;24.340;2022-09-02T02:31:05;98913.22;;;22.32;93.80
27729;BME280;15126;42.186;24.340;2022-09-02T02:33:32;98915.28;;;22.32;93.88
27729;BME280;15126;42.186;24.340;2022-09-02T02:35:59;98900.81;;;22.30;94.35
27729;BME280;15126;42.186;24.340;2022-09-02T02:38:29;98909.59;;;22.32;94.47
27729;BME280;15126;42.186;24.340;2022-09-02T02:40:56;98913.75;;;22.31;94.63
27729;BME280;15126;42.186;24.340;2022-09-02T02:43:23;98907.28;;;22.30;94.68
27729;BME280;15126;42.186;24.340;2022-09-02T02:45:50;98903.41;;;22.28;94.75
27729;BME280;15126;42.186;24.340;2022-09-02T02:48:19;98902.88;;;22.29;94.96
27729;BME280;15126;42.186;24.340;2022-09-02T02:50:46;98895.41;;;22.26;95.30
27729;BME280;15126;42.186;24.340;2022-09-02T02:53:13;98900.84;;;22.24;95.34
27729;BME280;15126;42.186;24.340;2022-09-02T02:55:42;98907.56;;;22.21;94.99
27729;BME280;15126;42.186;24.340;2022-09-02T02:58:09;98899.56;;;22.20;95.27
27729;BME280;15126;42.186;24.340;2022-09-02T03:00:36;98891.53;;;22.18;95.28
27729;BME280;15126;42.186;24.340;2022-09-02T03:03:05;98895.19;;;22.13;95.48
27729;BME280;15126;42.186;24.340;2022-09-02T03:05:34;98893.91;;;22.09;96.21
27729;BME280;15126;42.186;24.340;2022-09-02T03:08:03;98891.56;;;22.07;96.12
27729;BME280;15126;42.186;24.340;2022-09-02T03:10:30;98888.47;;;22.05;96.71
27729;BME280;15126;42.186;24.340;2022-09-02T03:12:57;98882.81;;;22.05;96.35
27729;BME280;15126;42.186;24.340;2022-09-02T03:15:24;98876.34;;;21.99;96.52
27729;BME280;15126;42.186;24.340;2022-09-02T03:17:52;98889.53;;;22.02;96.59
27729;BME280;15126;42.186;24.340;2022-09-02T03:20:20;98893.13;;;22.03;96.08
27729;BME280;15126;42.186;24.340;2022-09-02T03:22:52;98886.44;;;22.00;96.41
27729;BME280;15126;42.186;24.340;2022-09-02T03:25:19;98898.28;;;22.04;95.83
27729;BME280;15126;42.186;24.340;2022-09-02T03:27:47;98900.09;;;22.02;96.11
27729;BME280;15126;42.186;24.340;2022-09-02T03:30:17;98893.13;;;22.03;96.36
27729;BME280;15126;42.186;24.340;2022-09-02T03:32:44;98909.16;;;22.00;95.80
27729;BME280;15126;42.186;24.340;2022-09-02T03:35:14;98909.41;;;21.97;95.35
27729;BME280;15126;42.186;24.340;2022-09-02T03:37:43;98902.94;;;21.96;95.85
27729;BME280;15126;42.186;24.340;2022-09-02T03:40:15;98892.13;;;21.89;95.85
27729;BME280;15126;42.186;24.340;2022-09-02T03:42:42;98901.16;;;21.99;95.74
27729;BME280;15126;42.186;24.340;2022-09-02T03:45:10;98908.91;;;21.98;96.19
27729;BME280;15126;42.186;24.340;2022-09-02T03:47:37;98904.50;;;21.97;96.43
27729;BME280;15126;42.186;24.340;2022-09-02T03:50:08;98900.91;;;21.91;96.75
27729;BME280;15126;42.186;24.340;2022-09-02T03:52:35;98910.44;;;21.99;96.33
27729;BME280;15126;42.186;24.340;2022-09-02T03:55:02;98908.91;;;21.98;97.30
27729;BME280;15126;42.186;24.340;2022-09-02T03:57:30;98913.28;;;21.99;97.79
27729;BME280;15126;42.186;24.340;2022-09-02T03:59:57;98913.81;;;22.03;97.99
27729;BME280;15126;42.186;24.340;2022-09-02T04:02:24;98921.78;;;22.05;97.40
27729;BME280;15126;42.186;24.340;2022-09-02T04:04:51;98915.31;;;22.04;97.55
27729;BME280;15126;42.186;24.340;2022-09-02T04:07:18;98912.47;;;22.10;97.21
27729;BME280;15126;42.186;24.340;2022-09-02T04:09:46;98922.81;;;22.13;97.23
27729;BME280;15126;42.186;24.340;2022-09-02T04:12:12;98922.56;;;22.05;97.73
27729;BME280;15126;42.186;24.340;2022-09-02T04:14:41;98927.22;;;22.08;98.03
27729;BME280;15126;42.186;24.340;2022-09-02T04:17:07;98929.81;;;22.12;97.81
27729;BME280;15126;42.186;24.340;2022-09-02T04:19:34;98932.34;;;22.15;96.80
27729;BME280;15126;42.186;24.340;2022-09-02T04:22:02;98938.31;;;22.17;97.15
27729;BME280;15126;42.186;24.340;2022-09-02T04:24:29;98940.13;;;22.20;97.21
27729;BME280;15126;42.186;24.340;2022-09-02T04:26:56;98952.22;;;22.21;97.66
27729;BME280;15126;42.186;24.340;2022-09-02T04:29:22;98942.44;;;22.22;98.09
27729;BME280;15126;42.186;24.340;2022-09-02T04:31:52;98952.75;;;22.25;97.87
27729;BME280;15126;42.186;24.340;2022-09-02T04:34:19;98947.06;;;22.30;97.55
27729;BME280;15126;42.186;24.340;2022-09-02T04:36:46;98947.84;;;22.31;97.56
27729;BME280;15126;42.186;24.340;2022-09-02T04:39:13;98960.75;;;22.32;98.18
27729;BME280;15126;42.186;24.340;2022-09-02T04:41:40;98965.16;;;22.16;97.32
27729;BME280;15126;42.186;24.340;2022-09-02T04:44:07;98964.63;;;22.23;97.05
27729;BME280;15126;42.186;24.340;2022-09-02T04:46:34;98959.19;;;22.36;95.94
27729;BME280;15126;42.186;24.340;2022-09-02T04:49:03;98957.63;;;22.41;96.08
27729;BME280;15126;42.186;24.340;2022-09-02T04:51:30;98960.69;;;22.48;95.31
27729;BME280;15126;42.186;24.340;2022-09-02T04:53:57;98953.97;;;22.51;94.95
27729;BME280;15126;42.186;24.340;2022-09-02T04:56:27;98956.03;;;22.57;94.63
27729;BME280;15126;42.186;24.340;2022-09-02T04:58:55;98959.38;;;22.61;95.58
27729;BME280;15126;42.186;24.340;2022-09-02T05:01:24;98958.09;;;22.56;95.13
27729;BME280;15126;42.186;24.340;2022-09-02T05:03:52;98944.41;;;22.54;95.23
27729;BME280;15126;42.186;24.340;2022-09-02T05:06:23;98955.00;;;22.65;95.45
27729;BME280;15126;42.186;24.340;2022-09-02T05:08:51;98950.09;;;22.60;95.18
27729;BME280;15126;42.186;24.340;2022-09-02T05:11:20;98944.41;;;22.66;95.15
27729;BME280;15126;42.186;24.340;2022-09-02T05:13:49;98961.16;;;22.75;94.91
27729;BME280;15126;42.186;24.340;2022-09-02T05:16:17;98960.38;;;22.80;95.18
27729;BME280;15126;42.186;24.340;2022-09-02T05:18:45;98961.41;;;22.82;94.52
27729;BME280;15126;42.186;24.340;2022-09-02T05:21:11;98957.31;;;22.67;93.80
27729;BME280;15126;42.186;24.340;2022-09-02T05:23:40;98953.41;;;22.70;93.79
27729;BME280;15126;42.186;24.340;2022-09-02T05:26:08;98948.47;;;22.81;94.59
27729;BME280;15126;42.186;24.340;2022-09-02T05:28:35;98942.78;;;22.81;93.92
27729;BME280;15126;42.186;24.340;2022-09-02T05:31:03;98942.53;;;22.85;93.32
27729;BME280;15126;42.186;24.340;2022-09-02T05:33:30;98944.28;;;22.99;93.09
27729;BME280;15126;42.186;24.340;2022-09-02T05:35:58;98943.94;;;23.08;92.83
27729;BME280;15126;42.186;24.340;2022-09-02T05:38:24;98951.94;;;23.15;93.18
27729;BME280;15126;42.186;24.340;2022-09-02T05:40:53;98944.13;;;23.21;92.80
27729;BME280;15126;42.186;24.340;2022-09-02T05:43:20;98943.03;;;23.30;92.67
27729;BME280;15126;42.186;24.340;2022-09-02T05:45:47;98938.09;;;23.36;91.57
27729;BME280;15126;42.186;24.340;2022-09-02T05:48:14;98946.91;;;23.38;90.58
27729;BME280;15126;42.186;24.340;2022-09-02T05:51:02;98947.88;;;23.46;90.81
27729;BME280;15126;42.186;24.340;2022-09-02T05:53:29;98948.91;;;23.48;90.30
27729;BME280;15126;42.186;24.340;2022-09-02T05:56:02;98955.84;;;23.58;89.46
27729;BME280;15126;42.186;24.340;2022-09-02T05:58:33;98944.47;;;23.53;90.98
27729;BME280;15126;42.186;24.340;2022-09-02T06:01:06;98950.84;;;23.64;91.74
27729;BME280;15126;42.186;24.340;2022-09-02T06:03:33;98940.53;;;23.61;90.16
27729;BME280;15126;42.186;24.340;2022-09-02T06:06:00;98945.81;;;23.82;89.44
27729;BME280;15126;42.186;24.340;2022-09-02T06:08:27;98932.06;;;23.86;89.55
27729;BME280;15126;42.186;24.340;2022-09-02T06:10:54;98949.00;;;24.02;88.71
27729;BME280;15126;42.186;24.340;2022-09-02T06:13:22;98949.75;;;24.03;87.70
27729;BME280;15126;42.186;24.340;2022-09-02T06:15:49;98951.19;;;24.20;88.18
27729;BME280;15126;42.186;24.340;2022-09-02T06:18:17;98958.06;;;24.31;86.00
27729;BME280;15126;42.186;24.340;2022-09-02T06:20:45;98950.69;;;24.41;85.29
27729;BME280;15126;42.186;24.340;2022-09-02T06:23:14;98947.22;;;24.53;87.09
27729;BME280;15126;42.186;24.340;2022-09-02T06:25:43;98950.00;;;24.59;84.04
27729;BME280;15126;42.186;24.340;2022-09-02T06:28:11;98958.72;;;24.66;84.77
27729;BME280;15126;42.186;24.340;2022-09-02T06:30:44;98959.22;;;24.70;85.63
27729;BME280;15126;42.186;24.340;2022-09-02T06:33:11;98962.75;;;24.76;85.46
27729;BME280;15126;42.186;24.340;2022-09-02T06:35:40;98951.59;;;24.78;84.45
27729;BME280;15126;42.186;24.340;2022-09-02T06:38:07;98962.19;;;24.83;85.43
27729;BME280;15126;42.186;24.340;2022-09-02T06:40:35;98962.34;;;24.91;84.20
27729;BME280;15126;42.186;24.340;2022-09-02T06:43:02;98965.13;;;24.97;83.94
27729;BME280;15126;42.186;24.340;2022-09-02T06:45:29;98970.22;;;25.04;83.57
27729;BME280;15126;42.186;24.340;2022-09-02T06:47:58;98973.56;;;25.08;83.22
27729;BME280;15126;42.186;24.340;2022-09-02T06:50:25;98981.34;;;25.07;81.60
27729;BME280;15126;42.186;24.340;2022-09-02T06:52:52;98986.28;;;25.07;80.64
27729;BME280;15126;42.186;24.340;2022-09-02T06:55:18;98971.63;;;25.16;81.42
27729;BME280;15126;42.186;24.340;2022-09-02T06:57:45;98971.06;;;25.17;82.52
27729;BME280;15126;42.186;24.340;2022-09-02T07:00:13;98985.28;;;25.23;79.84
27729;BME280;15126;42.186;24.340;2022-09-02T07:02:41;98991.22;;;25.25;82.09
27729;BME280;15126;42.186;24.340;2022-09-02T07:05:10;98984.69;;;25.30;79.60
27729;BME280;15126;42.186;24.340;2022-09-02T07:07:40;98985.34;;;25.17;78.93
27729;BME280;15126;42.186;24.340;2022-09-02T07:10:09;98991.13;;;25.30;80.77
27729;BME280;15126;42.186;24.340;2022-09-02T07:12:39;98984.75;;;25.24;80.50
27729;BME280;15126;42.186;24.340;2022-09-02T07:15:07;98996.63;;;25.28;79.15
27729;BME280;15126;42.186;24.340;2022-09-02T07:17:34;98995.63;;;25.26;81.29
27729;BME280;15126;42.186;24.340;2022-09-02T07:20:03;99001.56;;;25.28;79.53
27729;BME280;15126;42.186;24.340;2022-09-02T07:22:31;99004.75;;;25.24;79.66
27729;BME280;15126;42.186;24.340;2022-09-02T07:24:58;99004.75;;;25.24;79.58
27729;BME280;15126;42.186;24.340;2022-09-02T07:27:25;99007.59;;;25.24;79.62
27729;BME280;15126;42.186;24.340;2022-09-02T07:29:51;99004.97;;;25.26;81.27
27729;BME280;15126;42.186;24.340;2022-09-02T07:32:19;99030.09;;;25.28;80.43
27729;BME280;15126;42.186;24.340;2022-09-02T07:34:46;99020.25;;;25.29;81.29
27729;BME280;15126;42.186;24.340;2022-09-02T07:37:13;99012.69;;;25.31;80.44
27729;BME280;15126;42.186;24.340;2022-09-02T07:39:41;99006.19;;;25.31;80.69
27729;BME280;15126;42.186;24.340;2022-09-02T07:42:09;99017.53;;;25.36;80.04
27729;BME280;15126;42.186;24.340;2022-09-02T07:44:37;99008.34;;;25.25;80.04
27729;BME280;15126;42.186;24.340;2022-09-02T07:47:04;99007.09;;;25.20;81.99
27729;BME280;15126;42.186;24.340;2022-09-02T07:49:32;99016.53;;;25.15;82.24
27729;BME280;15126;42.186;24.340;2022-09-02T07:51:58;99013.44;;;25.13;83.14
27729;BME280;15126;42.186;24.340;2022-09-02T07:54:25;99017.59;;;25.12;81.58
27729;BME280;15126;42.186;24.340;2022-09-02T07:56:54;99007.97;;;25.15;83.08
27729;BME280;15126;42.186;24.340;2022-09-02T07:59:21;99007.03;;;25.26;86.08
27729;BME280;15126;42.186;24.340;2022-09-02T08:01:49;99005.72;;;25.27;85.28
27729;BME280;15126;42.186;24.340;2022-09-02T08:04:17;99006.03;;;25.23;85.93
27729;BME280;15126;42.186;24.340;2022-09-02T08:06:44;99006.03;;;25.23;85.67
27729;BME280;15126;42.186;24.340;2022-09-02T08:09:12;99008.19;;;25.36;86.71
27729;BME280;15126;42.186;24.340;2022-09-02T08:11:41;98998.53;;;25.39;87.70
27729;BME280;15126;42.186;24.340;2022-09-02T08:14:13;98990.75;;;25.39;88.83
27729;BME280;15126;42.186;24.340;2022-09-02T08:16:43;98994.69;;;25.36;87.52
27729;BME280;15126;42.186;24.340;2022-09-02T08:19:11;98996.25;;;25.37;88.46
27729;BME280;15126;42.186;24.340;2022-09-02T08:21:38;99002.19;;;25.39;89.81
27729;BME280;15126;42.186;24.340;2022-09-02T08:24:05;99000.63;;;25.38;90.43
27729;BME280;15126;42.186;24.340;2022-09-02T08:26:31;98998.63;;;25.33;91.56
27729;BME280;15126;42.186;24.340;2022-09-02T08:29:01;98989.97;;;25.39;91.41
27729;BME280;15126;42.186;24.340;2022-09-02T08:31:29;98997.47;;;25.42;91.52
27729;BME280;15126;42.186;24.340;2022-09-02T08:33:57;99012.47;;;25.48;91.32
27729;BME280;15126;42.186;24.340;2022-09-02T08:36:24;99002.34;;;25.47;91.81
27729;BME280;15126;42.186;24.340;2022-09-02T08:38:54;99000.53;;;25.44;91.54
27729;BME280;15126;42.186;24.340;2022-09-02T08:41:24;98997.41;;;25.48;91.15
27729;BME280;15126;42.186;24.340;2022-09-02T08:43:53;98984.97;;;25.45;91.64
27729;BME280;15126;42.186;24.340;2022-09-02T08:46:21;98988.56;;;25.51;90.36
27729;BME280;15126;42.186;24.340;2022-09-02T08:48:54;98987.13;;;25.58;91.50
27729;BME280;15126;42.186;24.340;2022-09-02T08:51:28;98984.63;;;25.54;90.35
27729;BME280;15126;42.186;24.340;2022-09-02T08:54:01;98988.25;;;25.55;89.43
27729;BME280;15126;42.186;24.340;2022-09-02T08:56:30;98989.00;;;25.55;88.57
27729;BME280;15126;42.186;24.340;2022-09-02T08:58:57;98990.91;;;25.66;89.19
27729;BME280;15126;42.186;24.340;2022-09-02T09:01:36;98989.09;;;25.68;89.23
27729;BME280;15126;42.186;24.340;2022-09-02T09:04:18;98983.03;;;25.72;90.12
27729;BME280;15126;42.186;24.340;2022-09-02T09:07:01;98978.31;;;25.74;90.66
27729;BME280;15126;42.186;24.340;2022-09-02T09:09:38;98979.00;;;25.80;88.14
27729;BME280;15126;42.186;24.340;2022-09-02T09:12:14;98970.03;;;25.89;90.20
27729;BME280;15126;42.186;24.340;2022-09-02T09:14:47;98964.50;;;25.78;88.33
27729;BME280;15126;42.186;24.340;2022-09-02T09:17:21;98958.25;;;25.93;89.42
27729;BME280;15126;42.186;24.340;2022-09-02T09:19:54;98961.50;;;26.02;86.81
27729;BME280;15126;42.186;24.340;2022-09-02T09:22:27;98960.56;;;26.13;87.22
27729;BME280;15126;42.186;24.340;2022-09-02T09:24:56;98957.97;;;26.10;87.06
27729;BME280;15126;42.186;24.340;2022-09-02T09:27:23;98952.78;;;26.27;88.44
27729;BME280;15126;42.186;24.340;2022-09-02T09:29:51;98954.31;;;26.28;87.23
27729;BME280;15126;42.186;24.340;2022-09-02T09:32:26;98943.88;;;26.43;82.13
27729;BME280;15126;42.186;24.340;2022-09-02T09:34:58;98955.53;;;26.58;83.53
27729;BME280;15126;42.186;24.340;2022-09-02T09:37:28;98949.03;;;26.58;80.59
27729;BME280;15126;42.186;24.340;2022-09-02T09:39:55;98954.34;;;26.67;78.43
27729;BME280;15126;42.186;24.340;2022-09-02T09:42:30;98963.19;;;26.82;79.61
27729;BME280;15126;42.186;24.340;2022-09-02T09:44:57;98966.56;;;26.94;81.00
27729;BME280;15126;42.186;24.340;2022-09-02T09:47:25;98968.78;;;27.01;77.27
27729;BME280;15126;42.186;24.340;2022-09-02T09:50:09;98972.81;;;27.18;78.14
27729;BME280;15126;42.186;24.340;2022-09-02T09:52:38;98963.31;;;27.37;78.97
27729;BME280;15126;42.186;24.340;2022-09-02T09:55:14;98957.91;;;27.46;74.08
27729;BME280;15126;42.186;24.340;2022-09-02T09:57:43;98955.56;;;27.58;76.39
27729;BME280;15126;42.186;24.340;2022-09-02T10:00:13;98950.69;;;27.66;73.35
27729;BME280;15126;42.186;24.340;2022-09-02T10:02:49;98959.28;;;27.87;71.91
27729;BME280;15126;42.186;24.340;2022-09-02T10:05:27;98957.00;;;28.06;74.85
27729;BME280;15126;42.186;24.340;2022-09-02T10:07:56;98953.34;;;28.26;73.58
27729;BME280;15126;42.186;24.340;2022-09-02T10:10:25;98955.25;;;28.52;74.94
27729;BME280;15126;42.186;24.340;2022-09-02T10:12:55;98956.81;;;28.81;74.83
27729;BME280;15126;42.186;24.340;2022-09-02T10:15:30;98961.03;;;28.80;70.78
27729;BME280;15126;42.186;24.340;2022-09-02T10:18:04;98967.06;;;28.97;70.91
27729;BME280;15126;42.186;24.340;2022-09-02T10:20:46;98964.25;;;29.12;69.31
27729;BME280;15126;42.186;24.340;2022-09-02T10:23:20;98959.84;;;29.11;65.55
27729;BME280;15126;42.186;24.340;2022-09-02T10:26:01;98958.41;;;29.25;67.16
27729;BME280;15126;42.186;24.340;2022-09-02T10:28:44;98953.56;;;29.20;65.04
27729;BME280;15126;42.186;24.340;2022-09-02T10:31:17;98963.19;;;29.23;68.04
27729;BME280;15126;42.186;24.340;2022-09-02T10:33:56;98964.16;;;29.25;66.86
27729;BME280;15126;42.186;24.340;2022-09-02T10:36:33;98953.91;;;29.09;64.78
27729;BME280;15126;42.186;24.340;2022-09-02T10:39:12;98963.84;;;29.08;66.67
27729;BME280;15126;42.186;24.340;2022-09-02T10:41:44;98968.50;;;28.83;67.65
27729;BME280;15126;42.186;24.340;2022-09-02T10:44:23;98959.88;;;28.55;66.86
27729;BME280;15126;42.186;24.340;2022-09-02T10:46:59;98969.69;;;28.39;69.72
27729;BME280;15126;42.186;24.340;2022-09-02T10:49:56;98970.47;;;28.18;71.68
27729;BME280;15126;42.186;24.340;2022-09-02T10:52:38;98969.63;;;27.90;76.07
27729;BME280;15126;42.186;24.340;2022-09-02T10:55:17;98983.50;;;27.65;76.91
27729;BME280;15126;42.186;24.340;2022-09-02T10:57:51;98978.25;;;27.09;77.11
27729;BME280;15126;42.186;24.340;2022-09-02T11:00:20;98979.66;;;26.76;78.34
27729;BME280;15126;42.186;24.340;2022-09-02T11:02:52;98981.16;;;26.38;81.28
27729;BME280;15126;42.186;24.340;2022-09-02T11:05:23;98970.28;;;26.04;82.61
27729;BME280;15126;42.186;24.340;2022-09-02T11:07:56;98976.28;;;25.56;79.92
27729;BME280;15126;42.186;24.340;2022-09-02T11:10:29;98966.63;;;25.22;81.45
27729;BME280;15126;42.186;24.340;2022-09-02T11:13:00;98963.56;;;24.96;85.49
27729;BME280;15126;42.186;24.340;2022-09-02T11:15:39;98969.75;;;24.81;87.75
27729;BME280;15126;42.186;24.340;2022-09-02T11:18:14;98976.63;;;24.67;89.55
27729;BME280;15126;42.186;24.340;2022-09-02T11:20:46;98981.78;;;24.44;91.09
27729;BME280;15126;42.186;24.340;2022-09-02T11:23:21;98986.31;;;23.99;92.19
27729;BME280;15126;42.186;24.340;2022-09-02T11:25:55;98985.94;;;23.78;94.99
27729;BME280;15126;42.186;24.340;2022-09-02T11:28:32;99002.38;;;23.66;96.10
27729;BME280;15126;42.186;24.340;2022-09-02T11:31:07;98992.34;;;23.54;93.94
27729;BME280;15126;42.186;24.340;2022-09-02T11:33:45;99017.16;;;23.59;95.11
27729;BME280;15126;42.186;24.340;2022-09-02T11:36:14;99020.78;;;23.60;93.86
27729;BME280;15126;42.186;24.340;2022-09-02T11:38:48;99002.94;;;23.54;94.59
27729;BME280;15126;42.186;24.340;2022-09-02T11:41:25;99019.19;;;23.64;94.81
27729;BME280;15126;42.186;24.340;2022-09-02T11:43:55;99018.25;;;23.51;93.30
27729;BME280;15126;42.186;24.340;2022-09-02T11:46:46;99019.84;;;23.35;95.86
27729;BME280;15126;42.186;24.340;2022-09-02T11:49:31;99010.66;;;23.18;96.06
27729;BME280;15126;42.186;24.340;2022-09-02T11:52:17;99012.78;;;23.01;96.19
27729;BME280;15126;42.186;24.340;2022-09-02T11:55:02;99003.25;;;22.93;98.59
27729;BME280;15126;42.186;24.340;2022-09-02T11:57:30;98992.91;;;22.95;97.43
27729;BME280;15126;42.186;24.340;2022-09-02T12:00:10;98998.31;;;22.99;100.00
27729;BME280;15126;42.186;24.340;2022-09-02T12:02:41;98996.19;;;23.10;100.00
27729;BME280;15126;42.186;24.340;2022-09-02T12:05:47;99004.97;;;23.18;100.00
27729;BME280;15126;42.186;24.340;2022-09-02T12:11:54;99005.91;;;23.37;100.00
27729;BME280;15126;42.186;24.340;2022-09-02T12:17:44;98977.63;;;23.50;99.38
27729;BME280;15126;42.186;24.340;2022-09-02T12:24:07;98987.19;;;23.88;95.24
27729;BME280;15126;42.186;24.340;2022-09-02T12:29:51;98982.59;;;24.15;95.82
27729;BME280;15126;42.186;24.340;2022-09-02T12:35:49;98987.13;;;24.29;94.57
27729;BME280;15126;42.186;24.340;2022-09-02T12:38:31;98979.56;;;24.32;95.99
27729;BME280;15126;42.186;24.340;2022-09-02T12:41:23;98970.91;;;24.18;97.98
27729;BME280;15126;42.186;24.340;2022-09-02T12:46:49;98969.16;;;24.10;98.05
27729;BME280;15126;42.186;24.340;2022-09-02T12:49:32;98969.53;;;24.25;98.42
27729;BME280;15126;42.186;24.340;2022-09-02T12:52:03;98974.16;;;24.28;98.69
27729;BME280;15126;42.186;24.340;2022-09-02T12:54:39;98967.84;;;24.35;98.91
27729;BME280;15126;42.186;24.340;2022-09-02T12:57:08;98959.41;;;24.54;97.55
27729;BME280;15126;42.186;24.340;2022-09-02T12:59:38;98951.00;;;24.61;98.10
27729;BME280;15126;42.186;24.340;2022-09-02T13:02:27;98950.31;;;24.74;97.52
27729;BME280;15126;42.186;24.340;2022-09-02T13:05:07;98940.09;;;24.84;95.23
27729;BME280;15126;42.186;24.340;2022-09-02T13:08:01;98936.28;;;25.00;95.87
27729;BME280;15126;42.186;24.340;2022-09-02T13:16:48;98956.78;;;25.36;93.59
27729;BME280;15126;42.186;24.340;2022-09-02T13:19:48;98908.59;;;25.32;91.38
27729;BME280;15126;42.186;24.340;2022-09-02T13:22:53;98927.97;;;25.71;92.57
27729;BME280;15126;42.186;24.340;2022-09-02T13:25:53;98941.69;;;25.91;89.83
27729;BME280;15126;42.186;24.340;2022-09-02T13:28:50;98935.75;;;25.89;88.03
27729;BME280;15126;42.186;24.340;2022-09-02T13:31:24;98915.53;;;26.00;88.51
27729;BME280;15126;42.186;24.340;2022-09-02T13:33:58;98942.75;;;26.20;88.13